sensor_id;sensor_type;location;lat;lon;timestamp;pressure;altitude;pressure_sealevel;temperature;humidity
79455;BME280;68900;52.134;5.420;2023-12-14T00:00:50;101143.19;;;5.80;100.00
79455;BME280;68900;52.134;5.420;2023-12-14T00:03:16;101143.41;;;5.77;100.00
79455;BME280;68900;52.134;5.420;2023-12-14T00:05:42;101145.97;;;5.78;100.00
79455;BME280;68900;52.134;5.420;2023-12-14T00:08:09;101162.66;;;5.82;100.00
79455;BME280;68900;52.134;5.420;2023-12-14T00:10:35;101170.38;;;5.74;100.00
79455;BME280;68900;52.134;5.420;2023-12-14T00:13:02;101170.00;;;5.67;100.00
79455;BME280;68900;52.134;5.420;2023-12-14T00:15:30;101179.84;;;5.67;100.00
79455;BME280;68900;52.134;5.420;2023-12-14T00:17:57;101189.59;;;5.68;100.00
79455;BME280;68900;52.134;5.420;2023-12-14T00:20:24;101186.16;;;5.66;100.00
79455;BME280;68900;52.134;5.420;2023-12-14T00:22:50;101189.78;;;5.65;100.00
79455;BME280;68900;52.134;5.420;2023-12-14T00:25:16;101195.91;;;5.67;100.00
79455;BME280;68900;52.134;5.420;2023-12-14T00:27:43;101201.88;;;5.70;100.00
79455;BME280;68900;52.134;5.420;2023-12-14T00:30:10;101205.66;;;5.68;100.00
79455;BME280;68900;52.134;5.420;2023-12-14T00:32:36;101215.16;;;5.72;100.00
79455;BME280;68900;52.134;5.420;2023-12-14T00:35:03;101217.84;;;5.72;100.00
79455;BME280;68900;52.134;5.420;2023-12-14T00:37:30;101220.50;;;5.72;100.00
79455;BME280;68900;52.134;5.420;2023-12-14T00:39:56;101224.25;;;5.69;100.00
79455;BME280;68900;52.134;5.420;2023-12-14T00:42:23;101224.38;;;5.68;100.00
79455;BME280;68900;52.134;5.420;2023-12-14T00:44:49;101222.13;;;5.62;100.00
79455;BME280;68900;52.134;5.420;2023-12-14T00:47:16;101224.81;;;5.62;100.00
79455;BME280;68900;52.134;5.420;2023-12-14T00:49:42;101229.72;;;5.68;100.00
79455;BME280;68900;52.134;5.420;2023-12-14T00:52:09;101228.00;;;5.67;100.00
79455;BME280;68900;52.134;5.420;2023-12-14T00:54:35;101231.66;;;5.66;100.00
79455;BME280;68900;52.134;5.420;2023-12-14T00:57:02;101232.84;;;5.62;100.00
79455;BME280;68900;52.134;5.420;2023-12-14T00:59:29;101242.78;;;5.60;100.00
79455;BME280;68900;52.134;5.420;2023-12-14T01:01:55;101240.34;;;5.57;100.00
79455;BME280;68900;52.134;5.420;2023-12-14T01:04:22;101251.91;;;5.57;100.00
79455;BME280;68900;52.134;5.420;2023-12-14T01:06:51;101257.03;;;5.60;100.00
79455;BME280;68900;52.134;5.420;2023-12-14T01:09:18;101263.22;;;5.61;100.00
79455;BME280;68900;52.134;5.420;2023-12-14T01:11:44;101268.06;;;5.56;100.00
79455;BME280;68900;52.134;5.420;2023-12-14T01:14:11;101278.03;;;5.54;100.00
79455;BME280;68900;52.134;5.420;2023-12-14T01:16:40;101279.84;;;5.53;100.00
79455;BME280;68900;52.134;5.420;2023-12-14T01:19:07;101295.66;;;5.56;100.00
79455;BME280;68900;52.134;5.420;2023-12-14T01:21:34;101288.72;;;5.54;100.00
79455;BME280;68900;52.134;5.420;2023-12-14T01:24:00;101289.59;;;5.54;100.00
79455;BME280;68900;52.134;5.420;2023-12-14T01:26:27;101284.09;;;5.56;100.00
79455;BME280;68900;52.134;5.420;2023-12-14T01:28:54;101297.38;;;5.57;100.00
79455;BME280;68900;52.134;5.420;2023-12-14T01:31:20;101303.38;;;5.61;100.00
79455;BME280;68900;52.134;5.420;2023-12-14T01:33:51;101305.84;;;5.64;100.00
79455;BME280;68900;52.134;5.420;2023-12-14T01:36:24;101301.56;;;5.61;100.00
79455;BME280;68900;52.134;5.420;2023-12-14T01:38:52;101304.13;;;5.63;100.00
79455;BME280;68900;52.134;5.420;2023-12-14T01:41:18;101304.13;;;5.63;100.00
79455;BME280;68900;52.134;5.420;2023-12-14T01:43:45;101303.38;;;5.61;100.00
79455;BME280;68900;52.134;5.420;2023-12-14T01:46:11;101305.19;;;5.60;100.00
79455;BME280;68900;52.134;5.420;2023-12-14T01:48:39;101319.34;;;5.62;100.00
79455;BME280;68900;52.134;5.420;2023-12-14T01:51:06;101331.94;;;5.60;100.00
79455;BME280;68900;52.134;5.420;2023-12-14T01:53:32;101346.19;;;5.61;100.00
79455;BME280;68900;52.134;5.420;2023-12-14T01:55:59;101335.50;;;5.61;100.00
79455;BME280;68900;52.134;5.420;2023-12-14T01:58:25;101348.13;;;5.59;100.00
79455;BME280;68900;52.134;5.420;2023-12-14T02:01:03;101354.22;;;5.61;100.00
79455;BME280;68900;52.134;5.420;2023-12-14T02:03:33;101352.31;;;5.63;100.00
79455;BME280;68900;52.134;5.420;2023-12-14T02:06:00;101358.53;;;5.63;100.00
79455;BME280;68900;52.134;5.420;2023-12-14T02:08:27;101368.56;;;5.60;100.00
79455;BME280;68900;52.134;5.420;2023-12-14T02:10:55;101367.50;;;5.62;100.00
79455;BME280;68900;52.134;5.420;2023-12-14T02:13:21;101366.66;;;5.62;100.00
79455;BME280;68900;52.134;5.420;2023-12-14T02:15:48;101373.91;;;5.60;100.00
79455;BME280;68900;52.134;5.420;2023-12-14T02:18:15;101378.63;;;5.56;100.00
79455;BME280;68900;52.134;5.420;2023-12-14T02:20:41;101388.47;;;5.56;100.00
79455;BME280;68900;52.134;5.420;2023-12-14T02:23:08;101391.06;;;5.57;100.00
79455;BME280;68900;52.134;5.420;2023-12-14T02:25:34;101391.06;;;5.57;100.00
79455;BME280;68900;52.134;5.420;2023-12-14T02:28:21;101403.56;;;5.57;100.00
79455;BME280;68900;52.134;5.420;2023-12-14T02:30:47;101413.53;;;5.55;100.00
79455;BME280;68900;52.134;5.420;2023-12-14T02:33:14;101419.63;;;5.57;100.00
79455;BME280;68900;52.134;5.420;2023-12-14T02:35:40;101424.75;;;5.60;100.00
79455;BME280;68900;52.134;5.420;2023-12-14T02:38:07;101424.66;;;5.61;100.00
79455;BME280;68900;52.134;5.420;2023-12-14T02:40:33;101429.38;;;5.58;100.00
79455;BME280;68900;52.134;5.420;2023-12-14T02:43:00;101428.50;;;5.57;100.00
79455;BME280;68900;52.134;5.420;2023-12-14T02:45:26;101429.38;;;5.58;100.00
79455;BME280;68900;52.134;5.420;2023-12-14T02:47:53;101430.41;;;5.55;100.00
79455;BME280;68900;52.134;5.420;2023-12-14T02:50:20;101433.88;;;5.57;100.00
79455;BME280;68900;52.134;5.420;2023-12-14T02:52:47;101435.47;;;5.60;100.00
79455;BME280;68900;52.134;5.420;2023-12-14T02:55:14;101447.25;;;5.57;100.00
79455;BME280;68900;52.134;5.420;2023-12-14T02:57:40;101444.66;;;5.56;100.00
79455;BME280;68900;52.134;5.420;2023-12-14T03:00:07;101444.47;;;5.59;100.00
79455;BME280;68900;52.134;5.420;2023-12-14T03:02:34;101445.34;;;5.59;100.00
79455;BME280;68900;52.134;5.420;2023-12-14T03:05:01;101453.38;;;5.59;100.00
79455;BME280;68900;52.134;5.420;2023-12-14T03:07:27;101459.53;;;5.60;100.00
79455;BME280;68900;52.134;5.420;2023-12-14T03:09:54;101457.00;;;5.58;100.00
79455;BME280;68900;52.134;5.420;2023-12-14T03:12:20;101455.28;;;5.57;100.00
79455;BME280;68900;52.134;5.420;2023-12-14T03:14:47;101467.25;;;5.52;100.00
79455;BME280;68900;52.134;5.420;2023-12-14T03:17:13;101467.16;;;5.53;100.00
79455;BME280;68900;52.134;5.420;2023-12-14T03:19:42;101463.41;;;5.56;100.00
79455;BME280;68900;52.134;5.420;2023-12-14T03:22:09;101467.78;;;5.57;100.00
79455;BME280;68900;52.134;5.420;2023-12-14T03:24:36;101465.88;;;5.59;100.00
79455;BME280;68900;52.134;5.420;2023-12-14T03:27:03;101466.63;;;5.61;100.00
79455;BME280;68900;52.134;5.420;2023-12-14T03:29:30;101472.19;;;5.58;100.00
79455;BME280;68900;52.134;5.420;2023-12-14T03:31:57;101473.25;;;5.55;100.00
79455;BME280;68900;52.134;5.420;2023-12-14T03:34:24;101471.53;;;5.54;100.00
79455;BME280;68900;52.134;5.420;2023-12-14T03:36:51;101467.25;;;5.52;100.00
79455;BME280;68900;52.134;5.420;2023-12-14T03:39:17;101468.19;;;5.51;100.00
79455;BME280;68900;52.134;5.420;2023-12-14T03:41:44;101466.28;;;5.53;100.00
79455;BME280;68900;52.134;5.420;2023-12-14T03:44:11;101467.16;;;5.53;100.00
79455;BME280;68900;52.134;5.420;2023-12-14T03:46:38;101460.94;;;5.53;100.00
79455;BME280;68900;52.134;5.420;2023-12-14T03:49:04;101459.97;;;5.54;100.00
79455;BME280;68900;52.134;5.420;2023-12-14T03:51:31;101467.25;;;5.52;100.00
79455;BME280;68900;52.134;5.420;2023-12-14T03:53:57;101470.69;;;5.54;100.00
79455;BME280;68900;52.134;5.420;2023-12-14T03:56:24;101469.06;;;5.51;100.00
79455;BME280;68900;52.134;5.420;2023-12-14T03:58:50;101474.53;;;5.50;100.00
79455;BME280;68900;52.134;5.420;2023-12-14T04:01:18;101479.03;;;5.49;100.00
79455;BME280;68900;52.134;5.420;2023-12-14T04:03:45;101473.69;;;5.49;100.00
79455;BME280;68900;52.134;5.420;2023-12-14T04:06:12;101480.06;;;5.47;100.00
79455;BME280;68900;52.134;5.420;2023-12-14T04:08:39;101489.19;;;5.44;100.00
79455;BME280;68900;52.134;5.420;2023-12-14T04:11:06;101496.25;;;5.45;100.00
79455;BME280;68900;52.134;5.420;2023-12-14T04:13:33;101505.31;;;5.43;100.00
79455;BME280;68900;52.134;5.420;2023-12-14T04:16:00;101505.41;;;5.41;100.00
79455;BME280;68900;52.134;5.420;2023-12-14T04:18:27;101513.44;;;5.41;100.00
79455;BME280;68900;52.134;5.420;2023-12-14T04:20:53;101525.00;;;5.42;100.00
79455;BME280;68900;52.134;5.420;2023-12-14T04:23:20;101531.22;;;5.42;100.00
79455;BME280;68900;52.134;5.420;2023-12-14T04:25:46;101529.31;;;5.44;100.00
79455;BME280;68900;52.134;5.420;2023-12-14T04:28:13;101523.00;;;5.45;100.00
79455;BME280;68900;52.134;5.420;2023-12-14T04:30:40;101534.66;;;5.44;100.00
79455;BME280;68900;52.134;5.420;2023-12-14T04:33:06;101542.03;;;5.41;100.00
79455;BME280;68900;52.134;5.420;2023-12-14T04:35:33;101545.75;;;5.38;100.00
79455;BME280;68900;52.134;5.420;2023-12-14T04:38:02;101540.41;;;5.38;100.00
79455;BME280;68900;52.134;5.420;2023-12-14T04:40:29;101544.03;;;5.37;100.00
79455;BME280;68900;52.134;5.420;2023-12-14T04:42:56;101559.13;;;5.38;100.00
79455;BME280;68900;52.134;5.420;2023-12-14T04:45:22;101560.94;;;5.38;100.00
79455;BME280;68900;52.134;5.420;2023-12-14T04:47:49;101572.59;;;5.37;100.00
79455;BME280;68900;52.134;5.420;2023-12-14T04:50:15;101579.59;;;5.39;100.00
79455;BME280;68900;52.134;5.420;2023-12-14T04:52:42;101584.16;;;5.37;100.00
79455;BME280;68900;52.134;5.420;2023-12-14T04:55:11;101582.34;;;5.38;100.00
79455;BME280;68900;52.134;5.420;2023-12-14T04:57:38;101595.63;;;5.39;100.00
79455;BME280;68900;52.134;5.420;2023-12-14T05:00:05;101594.97;;;5.36;100.00
79455;BME280;68900;52.134;5.420;2023-12-14T05:02:35;101607.28;;;5.38;100.00
79455;BME280;68900;52.134;5.420;2023-12-14T05:05:04;101612.56;;;5.40;100.00
79455;BME280;68900;52.134;5.420;2023-12-14T05:07:31;101613.50;;;5.39;100.00
79455;BME280;68900;52.134;5.420;2023-12-14T05:09:57;101621.53;;;5.39;100.00
79455;BME280;68900;52.134;5.420;2023-12-14T05:12:24;101624.13;;;5.40;100.00
79455;BME280;68900;52.134;5.420;2023-12-14T05:14:52;101630.50;;;5.38;100.00
79455;BME280;68900;52.134;5.420;2023-12-14T05:17:18;101636.81;;;5.37;100.00
79455;BME280;68900;52.134;5.420;2023-12-14T05:19:45;101640.16;;;5.40;100.00
79455;BME280;68900;52.134;5.420;2023-12-14T05:22:12;101650.00;;;5.40;99.90
79455;BME280;68900;52.134;5.420;2023-12-14T05:24:39;101658.97;;;5.39;100.00
79455;BME280;68900;52.134;5.420;2023-12-14T05:27:05;101666.22;;;5.37;100.00
79455;BME280;68900;52.134;5.420;2023-12-14T05:29:34;101665.41;;;5.36;99.90
79455;BME280;68900;52.134;5.420;2023-12-14T05:32:00;101667.09;;;5.37;100.00
79455;BME280;68900;52.134;5.420;2023-12-14T05:34:27;101676.19;;;5.34;100.00
79455;BME280;68900;52.134;5.420;2023-12-14T05:36:53;101682.28;;;5.37;100.00
79455;BME280;68900;52.134;5.420;2023-12-14T05:39:20;101677.78;;;5.37;100.00
79455;BME280;68900;52.134;5.420;2023-12-14T05:41:46;101678.66;;;5.38;100.00
79455;BME280;68900;52.134;5.420;2023-12-14T05:44:13;101684.78;;;5.40;100.00
79455;BME280;68900;52.134;5.420;2023-12-14T05:46:39;101687.75;;;5.35;100.00
79455;BME280;68900;52.134;5.420;2023-12-14T05:49:06;101688.78;;;5.32;100.00
79455;BME280;68900;52.134;5.420;2023-12-14T05:51:35;101692.31;;;5.33;100.00
79455;BME280;68900;52.134;5.420;2023-12-14T05:54:04;101693.84;;;5.37;100.00
79455;BME280;68900;52.134;5.420;2023-12-14T05:56:30;101700.91;;;5.38;100.00
79455;BME280;68900;52.134;5.420;2023-12-14T05:58:57;101702.06;;;5.34;100.00
79455;BME280;68900;52.134;5.420;2023-12-14T06:01:24;101705.69;;;5.33;100.00
79455;BME280;68900;52.134;5.420;2023-12-14T06:03:51;101715.16;;;5.24;99.57
79455;BME280;68900;52.134;5.420;2023-12-14T06:06:20;101712.03;;;5.18;99.06
79455;BME280;68900;52.134;5.420;2023-12-14T06:08:47;101726.22;;;5.18;98.94
79455;BME280;68900;52.134;5.420;2023-12-14T06:11:15;101721.94;;;5.16;98.27
79455;BME280;68900;52.134;5.420;2023-12-14T06:13:41;101733.00;;;5.10;98.13
79455;BME280;68900;52.134;5.420;2023-12-14T06:16:08;101734.16;;;5.06;97.57
79455;BME280;68900;52.134;5.420;2023-12-14T06:18:40;101730.63;;;5.05;97.79
79455;BME280;68900;52.134;5.420;2023-12-14T06:21:08;101730.63;;;5.05;97.70
79455;BME280;68900;52.134;5.420;2023-12-14T06:23:35;101743.06;;;5.06;97.94
79455;BME280;68900;52.134;5.420;2023-12-14T06:26:03;101741.25;;;5.07;97.72
79455;BME280;68900;52.134;5.420;2023-12-14T06:28:30;101758.59;;;5.00;97.19
79455;BME280;68900;52.134;5.420;2023-12-14T06:30:59;101762.25;;;4.99;97.25
79455;BME280;68900;52.134;5.420;2023-12-14T06:33:27;101764.91;;;4.99;97.27
79455;BME280;68900;52.134;5.420;2023-12-14T06:35:54;101777.31;;;5.00;97.04
79455;BME280;68900;52.134;5.420;2023-12-14T06:38:27;101782.78;;;4.98;96.96
79455;BME280;68900;52.134;5.420;2023-12-14T06:40:53;101785.53;;;4.97;97.15
79455;BME280;68900;52.134;5.420;2023-12-14T06:43:20;101787.25;;;4.98;97.16
79455;BME280;68900;52.134;5.420;2023-12-14T06:45:46;101796.88;;;5.00;97.26
79455;BME280;68900;52.134;5.420;2023-12-14T06:48:13;101799.47;;;5.02;96.88
79455;BME280;68900;52.134;5.420;2023-12-14T06:50:43;101801.38;;;5.00;96.98
79455;BME280;68900;52.134;5.420;2023-12-14T06:53:14;101812.19;;;4.98;96.38
79455;BME280;68900;52.134;5.420;2023-12-14T06:55:42;101810.44;;;4.97;96.44
79455;BME280;68900;52.134;5.420;2023-12-14T06:58:09;101811.31;;;4.98;96.87
79455;BME280;68900;52.134;5.420;2023-12-14T07:00:38;101828.56;;;4.92;96.17
79455;BME280;68900;52.134;5.420;2023-12-14T07:03:04;101826.38;;;4.84;95.96
79455;BME280;68900;52.134;5.420;2023-12-14T07:05:31;101831.78;;;4.83;96.00
79455;BME280;68900;52.134;5.420;2023-12-14T07:07:58;101844.28;;;4.82;95.60
79455;BME280;68900;52.134;5.420;2023-12-14T07:10:25;101858.34;;;4.86;96.10
79455;BME280;68900;52.134;5.420;2023-12-14T07:12:52;101856.91;;;4.80;95.27
79455;BME280;68900;52.134;5.420;2023-12-14T07:15:19;101848.19;;;4.77;95.67
79455;BME280;68900;52.134;5.420;2023-12-14T07:17:45;101863.88;;;4.83;95.58
79455;BME280;68900;52.134;5.420;2023-12-14T07:20:12;101865.94;;;4.78;95.55
79455;BME280;68900;52.134;5.420;2023-12-14T07:22:42;101871.47;;;4.75;95.53
79455;BME280;68900;52.134;5.420;2023-12-14T07:25:08;101871.38;;;4.76;95.14
79455;BME280;68900;52.134;5.420;2023-12-14T07:27:35;101877.75;;;4.74;95.46
79455;BME280;68900;52.134;5.420;2023-12-14T07:30:01;101881.56;;;4.70;95.54
79455;BME280;68900;52.134;5.420;2023-12-14T07:32:28;101883.38;;;4.69;95.32
79455;BME280;68900;52.134;5.420;2023-12-14T07:34:54;101886.06;;;4.69;95.32
79455;BME280;68900;52.134;5.420;2023-12-14T07:37:21;101891.47;;;4.68;95.03
79455;BME280;68900;52.134;5.420;2023-12-14T07:39:47;101888.81;;;4.68;95.16
79455;BME280;68900;52.134;5.420;2023-12-14T07:42:14;101896.66;;;4.71;95.17
79455;BME280;68900;52.134;5.420;2023-12-14T07:44:46;101895.88;;;4.69;94.77
79455;BME280;68900;52.134;5.420;2023-12-14T07:47:12;101890.59;;;4.67;94.76
79455;BME280;68900;52.134;5.420;2023-12-14T07:49:40;101904.75;;;4.69;94.42
79455;BME280;68900;52.134;5.420;2023-12-14T07:52:06;101899.41;;;4.69;94.55
79455;BME280;68900;52.134;5.420;2023-12-14T07:54:33;101909.16;;;4.70;94.44
79455;BME280;68900;52.134;5.420;2023-12-14T07:56:59;101912.50;;;4.74;94.48
79455;BME280;68900;52.134;5.420;2023-12-14T07:59:26;101914.25;;;4.75;94.44
79455;BME280;68900;52.134;5.420;2023-12-14T08:01:55;101913.19;;;4.77;94.66
79455;BME280;68900;52.134;5.420;2023-12-14T08:04:22;101915.78;;;4.79;94.57
79455;BME280;68900;52.134;5.420;2023-12-14T08:06:49;101918.38;;;4.80;94.75
79455;BME280;68900;52.134;5.420;2023-12-14T08:09:16;101926.56;;;4.77;94.73
79455;BME280;68900;52.134;5.420;2023-12-14T08:11:42;101925.63;;;4.78;94.82
79455;BME280;68900;52.134;5.420;2023-12-14T08:14:09;101933.38;;;4.83;95.03
79455;BME280;68900;52.134;5.420;2023-12-14T08:16:36;101929.75;;;4.84;95.04
79455;BME280;68900;52.134;5.420;2023-12-14T08:19:02;101938.53;;;4.86;94.72
79455;BME280;68900;52.134;5.420;2023-12-14T08:21:29;101936.81;;;4.85;94.55
79455;BME280;68900;52.134;5.420;2023-12-14T08:23:55;101946.66;;;4.84;94.45
79455;BME280;68900;52.134;5.420;2023-12-14T08:26:22;101957.25;;;4.86;94.04
79455;BME280;68900;52.134;5.420;2023-12-14T08:28:48;101960.09;;;4.83;93.32
79455;BME280;68900;52.134;5.420;2023-12-14T08:31:15;101958.22;;;4.85;93.73
79455;BME280;68900;52.134;5.420;2023-12-14T08:33:41;101956.63;;;4.81;93.35
79455;BME280;68900;52.134;5.420;2023-12-14T08:36:15;101959.22;;;4.82;92.99
79455;BME280;68900;52.134;5.420;2023-12-14T08:38:43;101960.88;;;4.85;93.60
79455;BME280;68900;52.134;5.420;2023-12-14T08:41:13;101956.47;;;4.84;93.09
79455;BME280;68900;52.134;5.420;2023-12-14T08:43:41;101967.19;;;4.84;92.91
79455;BME280;68900;52.134;5.420;2023-12-14T08:46:07;101976.13;;;4.83;93.21
79455;BME280;68900;52.134;5.420;2023-12-14T08:48:34;101978.72;;;4.84;93.13
79455;BME280;68900;52.134;5.420;2023-12-14T08:51:02;101981.28;;;4.86;93.24
79455;BME280;68900;52.134;5.420;2023-12-14T08:53:31;101988.13;;;4.92;93.21
79455;BME280;68900;52.134;5.420;2023-12-14T08:55:58;102001.47;;;4.92;93.44
79455;BME280;68900;52.134;5.420;2023-12-14T08:58:31;102007.50;;;4.95;93.26
79455;BME280;68900;52.134;5.420;2023-12-14T09:00:58;101995.13;;;4.94;93.68
79455;BME280;68900;52.134;5.420;2023-12-14T09:03:24;102000.47;;;4.94;93.27
79455;BME280;68900;52.134;5.420;2023-12-14T09:05:53;102010.97;;;4.97;93.35
79455;BME280;68900;52.134;5.420;2023-12-14T09:08:19;102017.19;;;4.98;93.35
79455;BME280;68900;52.134;5.420;2023-12-14T09:10:46;102008.22;;;4.99;92.92
79455;BME280;68900;52.134;5.420;2023-12-14T09:13:12;102016.13;;;5.00;93.60
79455;BME280;68900;52.134;5.420;2023-12-14T09:15:39;102020.81;;;4.97;92.81
79455;BME280;68900;52.134;5.420;2023-12-14T09:18:05;102025.28;;;4.96;92.67
79455;BME280;68900;52.134;5.420;2023-12-14T09:20:32;102032.28;;;4.99;93.17
79455;BME280;68900;52.134;5.420;2023-12-14T09:23:01;102033.03;;;5.01;93.05
79455;BME280;68900;52.134;5.420;2023-12-14T09:25:28;102033.91;;;5.01;93.13
79455;BME280;68900;52.134;5.420;2023-12-14T09:27:54;102048.16;;;5.02;93.14
79455;BME280;68900;52.134;5.420;2023-12-14T09:30:21;102040.13;;;5.02;93.44
79455;BME280;68900;52.134;5.420;2023-12-14T09:32:47;102046.25;;;5.04;93.14
79455;BME280;68900;52.134;5.420;2023-12-14T09:35:14;102053.25;;;5.06;93.48
79455;BME280;68900;52.134;5.420;2023-12-14T09:37:41;102053.06;;;5.09;93.71
79455;BME280;68900;52.134;5.420;2023-12-14T09:40:08;102059.19;;;5.11;93.05
79455;BME280;68900;52.134;5.420;2023-12-14T09:42:37;102055.03;;;5.06;93.07
79455;BME280;68900;52.134;5.420;2023-12-14T09:45:05;102063.94;;;5.06;93.07
79455;BME280;68900;52.134;5.420;2023-12-14T09:47:32;102072.75;;;5.08;93.07
79455;BME280;68900;52.134;5.420;2023-12-14T09:49:59;102074.31;;;5.12;93.17
79455;BME280;68900;52.134;5.420;2023-12-14T09:52:27;102081.19;;;5.16;93.33
79455;BME280;68900;52.134;5.420;2023-12-14T09:54:53;102091.97;;;5.15;92.99
79455;BME280;68900;52.134;5.420;2023-12-14T09:57:22;102098.97;;;5.17;93.21
79455;BME280;68900;52.134;5.420;2023-12-14T09:59:55;102112.34;;;5.17;92.51
79455;BME280;68900;52.134;5.420;2023-12-14T10:02:25;102110.63;;;5.16;92.39
79455;BME280;68900;52.134;5.420;2023-12-14T10:04:53;102119.31;;;5.20;92.30
79455;BME280;68900;52.134;5.420;2023-12-14T10:07:23;102116.66;;;5.20;92.19
79455;BME280;68900;52.134;5.420;2023-12-14T10:09:49;102129.09;;;5.21;92.32
79455;BME280;68900;52.134;5.420;2023-12-14T10:12:17;102125.38;;;5.23;92.71
79455;BME280;68900;52.134;5.420;2023-12-14T10:14:43;102129.00;;;5.22;91.80
79455;BME280;68900;52.134;5.420;2023-12-14T10:17:20;102128.84;;;5.25;91.83
79455;BME280;68900;52.134;5.420;2023-12-14T10:19:48;102119.88;;;5.26;91.69
79455;BME280;68900;52.134;5.420;2023-12-14T10:22:16;102116.31;;;5.26;91.08
79455;BME280;68900;52.134;5.420;2023-12-14T10:24:44;102122.53;;;5.26;91.67
79455;BME280;68900;52.134;5.420;2023-12-14T10:27:11;102127.63;;;5.31;91.61
79455;BME280;68900;52.134;5.420;2023-12-14T10:29:40;102120.38;;;5.33;91.29
79455;BME280;68900;52.134;5.420;2023-12-14T10:32:09;102128.66;;;5.28;91.32
79455;BME280;68900;52.134;5.420;2023-12-14T10:34:37;102127.72;;;5.29;91.29
79455;BME280;68900;52.134;5.420;2023-12-14T10:37:06;102128.31;;;5.34;91.40
79455;BME280;68900;52.134;5.420;2023-12-14T10:39:34;102134.28;;;5.40;91.40
79455;BME280;68900;52.134;5.420;2023-12-14T10:42:03;102126.94;;;5.43;91.34
79455;BME280;68900;52.134;5.420;2023-12-14T10:44:45;102123.06;;;5.49;91.72
79455;BME280;68900;52.134;5.420;2023-12-14T10:47:34;102132.09;;;5.46;90.34
79455;BME280;68900;52.134;5.420;2023-12-14T10:50:01;102125.19;;;5.42;90.90
79455;BME280;68900;52.134;5.420;2023-12-14T10:52:29;102128.75;;;5.43;91.01
79455;BME280;68900;52.134;5.420;2023-12-14T10:55:00;102135.03;;;5.42;91.00
79455;BME280;68900;52.134;5.420;2023-12-14T10:57:28;102137.72;;;5.42;90.47
79455;BME280;68900;52.134;5.420;2023-12-14T10:59:59;102131.59;;;5.40;90.74
79455;BME280;68900;52.134;5.420;2023-12-14T11:02:26;102136.84;;;5.41;90.65
79455;BME280;68900;52.134;5.420;2023-12-14T11:05:02;102139.44;;;5.43;91.17
79455;BME280;68900;52.134;5.420;2023-12-14T11:10:26;102150.81;;;5.46;90.73
79455;BME280;68900;52.134;5.420;2023-12-14T11:15:28;102152.31;;;5.52;90.75
79455;BME280;68900;52.134;5.420;2023-12-14T11:20:51;102168.34;;;5.52;90.30
79455;BME280;68900;52.134;5.420;2023-12-14T11:25:52;102168.28;;;5.53;90.80
79455;BME280;68900;52.134;5.420;2023-12-14T11:28:24;102169.84;;;5.57;90.79
79455;BME280;68900;52.134;5.420;2023-12-14T11:30:54;102177.78;;;5.59;90.82
79455;BME280;68900;52.134;5.420;2023-12-14T11:33:23;102176.66;;;5.63;90.73
79455;BME280;68900;52.134;5.420;2023-12-14T11:35:51;102174.75;;;5.65;90.50
79455;BME280;68900;52.134;5.420;2023-12-14T11:38:20;102176.81;;;5.60;90.38
79455;BME280;68900;52.134;5.420;2023-12-14T11:40:51;102178.53;;;5.61;89.50
79455;BME280;68900;52.134;5.420;2023-12-14T11:43:18;102176.72;;;5.61;89.88
79455;BME280;68900;52.134;5.420;2023-12-14T11:45:48;102175.97;;;5.59;89.43
79455;BME280;68900;52.134;5.420;2023-12-14T11:48:15;102176.91;;;5.58;89.35
79455;BME280;68900;52.134;5.420;2023-12-14T11:50:46;102173.97;;;5.63;89.36
79455;BME280;68900;52.134;5.420;2023-12-14T11:53:13;102180.03;;;5.66;89.51
79455;BME280;68900;52.134;5.420;2023-12-14T11:55:42;102172.78;;;5.68;89.47
79455;BME280;68900;52.134;5.420;2023-12-14T11:58:11;102173.53;;;5.70;89.38
79455;BME280;68900;52.134;5.420;2023-12-14T12:00:40;102180.44;;;5.74;89.57
79455;BME280;68900;52.134;5.420;2023-12-14T12:05:57;102179.22;;;5.80;89.13
79455;BME280;68900;52.134;5.420;2023-12-14T12:08:23;102187.06;;;5.83;89.70
79455;BME280;68900;52.134;5.420;2023-12-14T12:10:50;102197.47;;;5.89;89.76
79455;BME280;68900;52.134;5.420;2023-12-14T12:13:19;102195.47;;;5.93;90.02
79455;BME280;68900;52.134;5.420;2023-12-14T12:15:46;102193.50;;;5.96;90.64
79455;BME280;68900;52.134;5.420;2023-12-14T12:18:15;102192.66;;;5.96;90.05
79455;BME280;68900;52.134;5.420;2023-12-14T12:20:43;102203.25;;;5.97;90.05
79455;BME280;68900;52.134;5.420;2023-12-14T12:23:09;102196.75;;;6.01;90.14
79455;BME280;68900;52.134;5.420;2023-12-14T12:25:38;102202.03;;;6.03;90.71
79455;BME280;68900;52.134;5.420;2023-12-14T12:28:04;102201.03;;;6.05;90.20
79455;BME280;68900;52.134;5.420;2023-12-14T12:30:34;102200.81;;;6.08;90.86
79455;BME280;68900;52.134;5.420;2023-12-14T12:33:08;102211.28;;;6.13;90.32
79455;BME280;68900;52.134;5.420;2023-12-14T12:35:35;102205.84;;;6.14;90.74
79455;BME280;68900;52.134;5.420;2023-12-14T12:38:01;102211.00;;;6.17;90.47
79455;BME280;68900;52.134;5.420;2023-12-14T12:40:29;102209.47;;;6.13;90.13
79455;BME280;68900;52.134;5.420;2023-12-14T12:42:59;102209.47;;;6.13;90.21
79455;BME280;68900;52.134;5.420;2023-12-14T12:45:26;102212.22;;;6.12;89.55
79455;BME280;68900;52.134;5.420;2023-12-14T12:47:55;102215.84;;;6.11;89.65
79455;BME280;68900;52.134;5.420;2023-12-14T12:50:22;102220.34;;;6.10;89.67
79455;BME280;68900;52.134;5.420;2023-12-14T12:52:52;102221.13;;;6.12;89.93
79455;BME280;68900;52.134;5.420;2023-12-14T12:55:21;102214.75;;;6.15;89.95
79455;BME280;68900;52.134;5.420;2023-12-14T12:57:48;102216.56;;;6.14;90.18
79455;BME280;68900;52.134;5.420;2023-12-14T13:00:15;102223.47;;;6.18;89.87
79455;BME280;68900;52.134;5.420;2023-12-14T13:02:44;102205.56;;;6.19;90.01
79455;BME280;68900;52.134;5.420;2023-12-14T13:05:11;102212.47;;;6.23;90.42
79455;BME280;68900;52.134;5.420;2023-12-14T13:07:44;102216.88;;;6.24;90.65
79455;BME280;68900;52.134;5.420;2023-12-14T13:10:11;102212.56;;;6.21;90.31